Lakeland Linder Regional Airport Lakeland US
ICAO: KLAL
IATA: LAL
Category: Medium
Scheduled Services: No

Elevation: 142 ft
TransAlt. 18000 ft.

Airport Communications:
TAMPA APP/DEP:119.9
ATIS:118.025
CTAF:124.5
GND:121.4
ST PETERSBURG RDO:116
TWR:124.5
UNICOM:122.95

KLAL Zoom In..

Runways:

(A) RW 05 length 5005 ft width 150 ft
---- / hdg 49

(B) RW 09 length 8499 ft width 150 ft
ILS 110.10 / hdg 94

(C) RW 23 length 5005 ft width 150 ft
---- / hdg 229

(D) RW 27 length 8499 ft width 150 ft
---- / hdg 274

Location; KLAL
Day. 19 / Time. 20.50 Zulu
* Altimeter: 30.08
* Temperature: 28° c. 82.4°f.
* Wind from: 250° Speed 10 kn with Gusts up to 16 kn.
Dewpoint: 16° c.
Visibility: 10 Statute Miles.
Clouds: Few 4000 ft.

KLAL 192050Z 25010G16KT 10SM FEW040 28/16 A3008


Wind From 250°
Speed 10 kn.

  YouTube Music Video
 
jpsmedia.com for Web Design  worldairports.se 2018   terms of use